createdAt,value
2023-05-01T00:00:11.030Z,83.53
2023-05-01T00:03:14.967Z,82.49
2023-05-01T00:06:17.406Z,81.76
2023-05-01T00:09:19.910Z,82.76
2023-05-01T00:12:22.019Z,83.25
2023-05-01T00:15:24.468Z,82.99
2023-05-01T00:18:26.690Z,84.23
2023-05-01T00:21:29.113Z,83.01
2023-05-01T00:24:31.257Z,82.96
2023-05-01T00:27:33.712Z,84.53
2023-05-01T00:30:35.953Z,82.96
2023-05-01T00:33:38.481Z,81.75
2023-05-01T00:36:40.630Z,81.96
2023-05-01T00:39:43.072Z,81.47
2023-05-01T00:42:45.203Z,81.63
2023-05-01T00:45:47.748Z,81.25
2023-05-01T00:48:50.105Z,80.85
2023-05-01T00:51:56.072Z,80.47
2023-05-01T00:54:59.139Z,79.52
2023-05-01T00:58:02.245Z,81.12
2023-05-01T01:01:05.417Z,80.40
2023-05-01T01:04:08.326Z,79.33
2023-05-01T01:07:21.439Z,81.45
2023-05-01T01:10:51.023Z,79.85
2023-05-01T01:14:00.145Z,79.39
2023-05-01T01:17:16.547Z,79.93
2023-05-01T01:21:09.500Z,80.52
2023-05-01T01:24:45.501Z,79.87
2023-05-01T01:28:38.357Z,80.41
2023-05-01T01:32:09.251Z,80.93
2023-05-01T01:35:18.377Z,81.31
2023-05-01T01:38:25.087Z,81.66
2023-05-01T01:41:33.129Z,82.32
2023-05-01T01:44:56.843Z,83.93
2023-05-01T01:48:01.031Z,84.96
2023-05-01T01:51:10.322Z,84.61
2023-05-01T01:54:15.016Z,84.69
2023-05-01T01:57:19.870Z,85.08
2023-05-01T02:00:23.377Z,85.73
2023-05-01T02:03:26.856Z,85.49
2023-05-01T02:06:31.710Z,86.08
2023-05-01T02:09:35.350Z,86.72
2023-05-01T02:12:38.041Z,87.29
2023-05-01T02:15:41.156Z,87.55
2023-05-01T02:18:46.600Z,89.00
2023-05-01T02:21:50.258Z,88.94
2023-05-01T02:24:57.243Z,89.35
2023-05-01T02:28:03.726Z,87.63
2023-05-01T02:31:06.298Z,88.37
2023-05-01T02:34:08.664Z,88.09
2023-05-01T02:37:12.033Z,88.44
2023-05-01T02:40:15.858Z,88.75
2023-05-01T02:43:20.975Z,88.65
2023-05-01T02:46:26.227Z,87.16
2023-05-01T02:49:31.204Z,87.96
2023-05-01T02:52:34.631Z,86.81
2023-05-01T02:55:37.865Z,86.72
2023-05-01T02:58:41.177Z,85.50
2023-05-01T03:01:43.788Z,85.40
2023-05-01T03:04:46.069Z,85.06
2023-05-01T03:07:48.797Z,84.86
2023-05-01T03:10:50.998Z,83.79
2023-05-01T03:13:53.459Z,83.60
2023-05-01T03:16:56.021Z,83.75
2023-05-01T03:19:58.610Z,83.48
2023-05-01T03:23:01.581Z,83.62
2023-05-01T03:26:04.545Z,83.96
2023-05-01T03:29:06.665Z,82.61
2023-05-01T03:32:09.675Z,81.55
2023-05-01T03:35:12.480Z,81.99
2023-05-01T03:38:14.997Z,80.53
2023-05-01T03:41:21.402Z,78.80
2023-05-01T03:44:25.464Z,81.65
2023-05-01T03:47:27.717Z,77.40
2023-05-01T03:50:30.201Z,76.45
2023-05-01T03:53:33.024Z,75.83
2023-05-01T03:56:36.960Z,74.07
2023-05-01T03:59:39.838Z,74.20
2023-05-01T04:02:42.574Z,73.98
2023-05-01T04:05:46.142Z,73.57
2023-05-01T04:08:48.354Z,72.27
2023-05-01T04:11:50.928Z,72.14
2023-05-01T04:14:53.119Z,71.93
2023-05-01T04:17:56.740Z,72.44
2023-05-01T04:20:59.196Z,74.51
2023-05-01T04:24:01.874Z,74.00
2023-05-01T04:27:05.707Z,74.29
2023-05-01T04:30:08.714Z,76.09
2023-05-01T04:33:11.695Z,76.97
2023-05-01T04:36:14.381Z,77.70
2023-05-01T04:39:17.054Z,78.03
2023-05-01T04:42:19.473Z,77.01
2023-05-01T04:45:21.842Z,77.86
2023-05-01T04:48:24.405Z,78.32
2023-05-01T04:51:27.984Z,78.77
2023-05-01T04:54:30.412Z,79.97
2023-05-01T04:57:32.612Z,79.99
2023-05-01T05:00:35.660Z,80.53
2023-05-01T05:03:38.055Z,81.84
2023-05-01T05:06:40.960Z,81.88
2023-05-01T05:09:44.309Z,83.02
2023-05-01T05:12:46.774Z,82.86
2023-05-01T05:15:48.900Z,82.36
2023-05-01T05:18:56.144Z,83.93
2023-05-01T05:21:58.348Z,84.78
2023-05-01T05:25:04.134Z,83.69
2023-05-01T05:28:06.607Z,83.34
2023-05-01T05:31:09.154Z,83.92
2023-05-01T05:34:11.557Z,82.24
2023-05-01T05:37:15.362Z,82.69
2023-05-01T05:40:19.597Z,78.06
2023-05-01T05:43:22.667Z,77.50
2023-05-01T05:46:24.982Z,74.55
2023-05-01T05:49:27.477Z,71.85
2023-05-01T05:52:29.715Z,71.11
2023-05-01T05:55:32.604Z,72.70
2023-05-01T05:58:35.032Z,71.68
2023-05-01T06:01:37.810Z,67.82
2023-05-01T06:04:40.248Z,69.60
2023-05-01T06:07:43.558Z,71.41
2023-05-01T06:10:46.116Z,69.54
2023-05-01T06:13:48.821Z,69.77
2023-05-01T06:16:51.724Z,70.76
2023-05-01T06:19:54.120Z,68.09
2023-05-01T06:22:57.974Z,65.22
2023-05-01T06:26:01.567Z,60.00
2023-05-01T06:29:04.020Z,61.03
2023-05-01T06:32:06.347Z,62.46
2023-05-01T06:35:09.686Z,59.16
2023-05-01T06:38:11.814Z,58.14
2023-05-01T06:41:16.148Z,61.37
2023-05-01T06:44:18.309Z,55.90
2023-05-01T06:47:21.407Z,55.24
2023-05-01T06:50:23.616Z,52.10
2023-05-01T06:53:26.078Z,51.23
2023-05-01T06:56:28.249Z,51.68
2023-05-01T06:59:30.627Z,52.14
2023-05-01T07:02:32.863Z,52.57
2023-05-01T07:05:35.553Z,52.14
2023-05-01T07:08:37.705Z,48.61
2023-05-01T07:11:40.100Z,49.96
2023-05-01T07:14:42.285Z,49.44
2023-05-01T07:17:45.531Z,49.92
2023-05-01T07:20:49.901Z,47.63
2023-05-01T07:23:52.357Z,46.71
2023-05-01T07:26:54.462Z,48.34
2023-05-01T07:29:58.194Z,48.40
2023-05-01T07:33:00.733Z,48.73
2023-05-01T07:36:04.587Z,46.07
2023-05-01T07:39:07.322Z,45.96
2023-05-01T07:42:09.703Z,43.99
2023-05-01T07:45:11.855Z,42.45
2023-05-01T07:48:14.383Z,41.43
2023-05-01T07:51:18.393Z,40.94
2023-05-01T07:54:22.116Z,40.29
2023-05-01T07:57:25.091Z,37.65
2023-05-01T08:00:27.551Z,38.54
2023-05-01T08:03:30.653Z,36.71
2023-05-01T08:06:33.414Z,35.84
2023-05-01T08:09:35.985Z,35.83
2023-05-01T08:12:38.348Z,35.81
2023-05-01T08:15:42.921Z,35.13
2023-05-01T08:18:45.204Z,34.77
2023-05-01T08:21:47.609Z,33.58
2023-05-01T08:24:51.200Z,35.07
2023-05-01T08:27:53.744Z,34.33
2023-05-01T08:30:55.914Z,33.94
2023-05-01T08:33:58.423Z,34.14
2023-05-01T08:37:00.734Z,31.98
2023-05-01T08:40:08.351Z,31.25
2023-05-01T08:43:10.610Z,31.83
2023-05-01T08:46:16.092Z,31.94
2023-05-01T08:49:21.320Z,31.26
2023-05-01T08:52:25.009Z,31.77
2023-05-01T08:55:28.892Z,29.57
2023-05-01T08:58:35.350Z,29.84
2023-05-01T09:01:38.217Z,30.78
2023-05-01T09:04:41.546Z,30.17
2023-05-01T09:07:45.954Z,30.50
2023-05-01T09:10:49.404Z,29.99
2023-05-01T09:13:53.115Z,30.11
2023-05-01T09:16:56.801Z,29.77
2023-05-01T09:20:01.713Z,30.13
2023-05-01T09:23:04.561Z,29.00
2023-05-01T09:26:07.906Z,28.93
2023-05-01T09:29:10.419Z,28.31
2023-05-01T09:32:13.751Z,28.08
2023-05-01T09:35:17.995Z,29.53
2023-05-01T09:38:22.111Z,29.82
2023-05-01T09:41:24.618Z,29.37
2023-05-01T09:44:27.693Z,29.72
2023-05-01T09:47:30.898Z,30.07
2023-05-01T09:50:34.749Z,32.26
2023-05-01T09:53:40.884Z,28.31
2023-05-01T09:56:47.953Z,30.67
2023-05-01T10:00:08.388Z,29.93
2023-05-01T10:03:15.050Z,29.24
2023-05-01T10:06:30.207Z,29.90
2023-05-01T10:09:32.632Z,29.74
2023-05-01T10:12:37.003Z,30.36
2023-05-01T10:15:39.566Z,30.72
2023-05-01T10:18:42.087Z,31.02
2023-05-01T10:21:44.685Z,29.78
2023-05-01T10:24:46.849Z,30.51
2023-05-01T10:27:51.185Z,30.08
2023-05-01T10:30:53.977Z,30.01
2023-05-01T10:33:56.853Z,29.90
2023-05-01T10:37:02.717Z,29.89
2023-05-01T10:40:39.495Z,30.54
2023-05-01T10:43:41.684Z,28.75
2023-05-01T10:46:44.481Z,31.76
2023-05-01T10:50:15.940Z,30.39
2023-05-01T10:53:19.054Z,32.62
2023-05-01T10:56:25.305Z,29.82
2023-05-01T10:59:58.518Z,33.10
2023-05-01T11:03:22.470Z,32.36
2023-05-01T11:06:25.447Z,31.27
2023-05-01T11:09:43.817Z,31.23
2023-05-01T11:12:46.356Z,30.73
2023-05-01T11:15:48.566Z,30.28
2023-05-01T11:18:51.109Z,31.98
2023-05-01T11:21:54.194Z,30.55
2023-05-01T11:24:57.150Z,30.98
2023-05-01T11:28:02.014Z,31.40
2023-05-01T11:31:04.665Z,30.78
2023-05-01T11:34:07.280Z,33.14
2023-05-01T11:37:09.709Z,33.27
2023-05-01T11:40:23.993Z,32.84
2023-05-01T11:43:26.794Z,31.56
2023-05-01T11:46:33.497Z,33.20
2023-05-01T11:49:36.342Z,32.39
2023-05-01T11:53:11.600Z,30.05
2023-05-01T11:56:27.260Z,29.69
2023-05-01T11:59:30.597Z,30.76
2023-05-01T12:02:33.360Z,30.88
2023-05-01T12:05:38.121Z,31.31
2023-05-01T12:08:45.213Z,32.54
2023-05-01T12:11:52.317Z,31.74
2023-05-01T12:14:54.832Z,31.70
2023-05-01T12:17:58.085Z,32.45
2023-05-01T12:21:01.238Z,32.36
2023-05-01T12:24:18.816Z,32.33
2023-05-01T12:27:21.330Z,31.48
2023-05-01T12:30:27.620Z,32.63
2023-05-01T12:33:30.186Z,31.33
2023-05-01T12:36:35.766Z,32.76
2023-05-01T12:39:44.627Z,32.51
2023-05-01T12:42:55.819Z,32.36
2023-05-01T12:45:58.483Z,32.54
2023-05-01T12:49:01.148Z,32.18
2023-05-01T12:52:08.829Z,33.50
2023-05-01T12:55:12.580Z,33.93
2023-05-01T12:58:16.224Z,32.87
2023-05-01T13:01:27.236Z,33.25
2023-05-01T13:04:29.725Z,32.81
2023-05-01T13:07:32.191Z,31.55
2023-05-01T13:10:34.549Z,31.46
2023-05-01T13:13:37.553Z,33.15
2023-05-01T13:16:49.664Z,34.68
2023-05-01T13:20:00.377Z,34.26
2023-05-01T13:23:10.846Z,33.70
2023-05-01T13:26:13.475Z,32.82
2023-05-01T13:29:16.091Z,33.34
2023-05-01T13:32:18.507Z,33.98
2023-05-01T13:35:23.666Z,32.84
2023-05-01T13:38:26.949Z,33.74
2023-05-01T13:41:30.496Z,34.09
2023-05-01T13:44:33.032Z,33.94
2023-05-01T13:47:40.350Z,34.51
2023-05-01T13:50:43.012Z,34.72
2023-05-01T13:53:45.201Z,34.16
2023-05-01T13:56:47.630Z,33.89
2023-05-01T13:59:49.773Z,32.13
2023-05-01T14:02:53.993Z,33.01
2023-05-01T14:05:56.713Z,33.88
2023-05-01T14:09:00.450Z,34.05
2023-05-01T14:12:02.927Z,34.42
2023-05-01T14:15:09.248Z,34.11
2023-05-01T14:18:17.060Z,32.44
2023-05-01T14:21:19.757Z,32.97
2023-05-01T14:24:22.586Z,32.81
2023-05-01T14:27:24.692Z,33.38
2023-05-01T14:30:37.458Z,33.13
2023-05-01T14:33:43.540Z,32.68
2023-05-01T14:36:46.174Z,32.91
2023-05-01T14:39:48.389Z,32.85
2023-05-01T14:42:51.460Z,33.83
2023-05-01T14:45:55.314Z,34.27
2023-05-01T14:48:59.029Z,33.52
2023-05-01T14:52:01.172Z,32.46
2023-05-01T14:55:04.680Z,31.82
2023-05-01T14:58:07.340Z,32.58
2023-05-01T15:01:09.926Z,34.50
2023-05-01T15:04:12.711Z,33.21
2023-05-01T15:07:15.395Z,35.01
2023-05-01T15:10:17.591Z,33.57
2023-05-01T15:13:21.145Z,34.18
2023-05-01T15:16:23.447Z,33.75
2023-05-01T15:19:26.097Z,34.35
2023-05-01T15:22:41.536Z,34.12
2023-05-01T15:26:10.516Z,33.73
2023-05-01T15:29:32.462Z,34.05
2023-05-01T15:32:48.754Z,33.98
2023-05-01T15:36:10.514Z,34.70
2023-05-01T15:39:26.521Z,34.70
2023-05-01T15:42:48.459Z,35.05
2023-05-01T15:46:12.666Z,35.23
2023-05-01T15:49:28.459Z,34.52
2023-05-01T15:52:53.487Z,33.33
2023-05-01T15:56:09.510Z,35.77
2023-05-01T15:59:32.517Z,35.18
2023-05-01T16:02:49.630Z,35.52
2023-05-01T16:06:18.507Z,35.51
2023-05-01T16:09:47.451Z,36.06
2023-05-01T16:13:13.506Z,37.54
2023-05-01T16:16:28.656Z,36.38
2023-05-01T16:19:51.471Z,37.00
2023-05-01T16:23:13.450Z,37.24
2023-05-01T16:26:34.463Z,37.23
2023-05-01T16:29:57.652Z,38.11
2023-05-01T16:33:23.506Z,37.59
2023-05-01T16:36:49.458Z,38.01
2023-05-01T16:39:51.932Z,38.23
2023-05-01T16:42:56.118Z,36.96
2023-05-01T16:45:58.721Z,37.67
2023-05-01T16:49:00.954Z,37.64
2023-05-01T16:52:04.367Z,37.78
2023-05-01T16:55:07.064Z,37.60
2023-05-01T16:58:23.522Z,37.46
2023-05-01T17:01:39.497Z,38.43
2023-05-01T17:04:48.847Z,38.21
2023-05-01T17:07:51.199Z,38.57
2023-05-01T17:10:53.652Z,39.25
2023-05-01T17:13:55.805Z,38.88
2023-05-01T17:17:00.947Z,41.14
2023-05-01T17:20:06.768Z,39.08
2023-05-01T17:23:10.088Z,38.32
2023-05-01T17:26:15.757Z,40.12
2023-05-01T17:29:18.253Z,38.96
2023-05-01T17:35:28.537Z,39.52
2023-05-01T17:38:30.730Z,39.66
2023-05-01T17:41:33.195Z,40.21
2023-05-01T17:44:35.549Z,38.96
2023-05-01T17:47:42.855Z,39.33
2023-05-01T17:50:45.582Z,39.35
2023-05-01T17:53:48.097Z,39.29
2023-05-01T17:56:50.269Z,41.09
2023-05-01T17:59:52.677Z,39.23
2023-05-01T18:02:54.953Z,39.53
2023-05-01T18:05:57.546Z,39.41
2023-05-01T18:08:59.865Z,39.31
2023-05-01T18:12:02.361Z,39.08
2023-05-01T18:15:04.813Z,38.92
2023-05-01T18:18:07.291Z,39.64
2023-05-01T18:21:09.568Z,39.54
2023-05-01T18:24:12.022Z,39.33
2023-05-01T18:27:14.442Z,39.70
2023-05-01T18:30:17.202Z,40.94
2023-05-01T18:33:21.404Z,40.53
2023-05-01T18:36:23.918Z,40.13
2023-05-01T18:39:26.024Z,40.23
2023-05-01T18:42:28.430Z,40.33
2023-05-01T18:45:30.885Z,40.03
2023-05-01T18:48:33.258Z,40.10
2023-05-01T18:51:35.896Z,40.35
2023-05-01T18:54:38.589Z,41.26
2023-05-01T18:57:44.276Z,40.24
2023-05-01T19:00:46.828Z,40.83
2023-05-01T19:03:49.310Z,40.88
2023-05-01T19:06:51.857Z,40.73
2023-05-01T19:09:54.086Z,41.02
2023-05-01T19:12:56.557Z,41.10
2023-05-01T19:15:58.778Z,40.96
2023-05-01T19:19:01.279Z,41.73
2023-05-01T19:22:03.432Z,42.23
2023-05-01T19:25:06.023Z,41.14
2023-05-01T19:28:08.269Z,41.39
2023-05-01T19:31:12.406Z,43.04
2023-05-01T19:34:16.020Z,43.13
2023-05-01T19:37:18.834Z,43.06
2023-05-01T19:40:21.008Z,43.72
2023-05-01T19:43:23.451Z,43.54
2023-05-01T19:46:25.752Z,44.09
2023-05-01T19:49:28.349Z,44.15
2023-05-01T19:52:30.654Z,45.50
2023-05-01T19:55:33.474Z,46.15
2023-05-01T19:58:35.585Z,45.60
2023-05-01T20:01:38.845Z,46.20
2023-05-01T20:04:41.361Z,45.71
2023-05-01T20:07:43.476Z,44.86
2023-05-01T20:10:46.155Z,44.31
2023-05-01T20:13:48.273Z,45.00
2023-05-01T20:16:52.259Z,46.23
2023-05-01T20:19:54.653Z,45.02
2023-05-01T20:23:10.285Z,46.33
2023-05-01T20:26:12.568Z,45.48
2023-05-01T20:29:15.485Z,44.45
2023-05-01T20:32:17.768Z,44.91
2023-05-01T20:35:20.159Z,47.04
2023-05-01T20:38:22.515Z,46.06
2023-05-01T20:41:25.684Z,46.36
2023-05-01T20:44:27.870Z,46.24
2023-05-01T20:47:31.687Z,45.53
2023-05-01T20:50:34.600Z,45.78
2023-05-01T20:53:37.032Z,46.70
2023-05-01T20:56:39.215Z,45.94
2023-05-01T20:59:46.279Z,45.72
2023-05-01T21:02:48.561Z,45.98
2023-05-01T21:05:51.067Z,46.12
2023-05-01T21:08:53.308Z,47.04
2023-05-01T21:11:55.706Z,46.08
2023-05-01T21:14:57.968Z,46.16
2023-05-01T21:18:01.256Z,47.31
2023-05-01T21:21:03.696Z,46.95
2023-05-01T21:24:08.220Z,46.70
2023-05-01T21:27:11.050Z,47.30
2023-05-01T21:30:17.549Z,48.13
2023-05-01T21:33:19.859Z,48.54
2023-05-01T21:36:22.325Z,47.27
2023-05-01T21:39:24.773Z,46.96
2023-05-01T21:42:34.306Z,46.11
2023-05-01T21:45:40.578Z,46.05
2023-05-01T21:48:43.449Z,46.52
2023-05-01T21:51:45.581Z,47.02
2023-05-01T21:54:48.045Z,47.82
2023-05-01T21:57:50.487Z,48.69
2023-05-01T22:00:52.969Z,45.54
2023-05-01T22:03:55.696Z,46.55
2023-05-01T22:06:57.823Z,47.46
2023-05-01T22:10:01.351Z,47.71
2023-05-01T22:13:06.344Z,49.17
2023-05-01T22:16:09.014Z,49.01
2023-05-01T22:19:11.190Z,47.76
2023-05-01T22:22:14.058Z,47.62
2023-05-01T22:25:16.676Z,49.00
2023-05-01T22:28:20.360Z,47.33
2023-05-01T22:31:23.440Z,49.21
2023-05-01T22:34:25.862Z,48.60
2023-05-01T22:37:28.108Z,47.59
2023-05-01T22:40:30.800Z,48.57
2023-05-01T22:43:32.945Z,48.30
2023-05-01T22:46:35.659Z,48.00
2023-05-01T22:49:37.893Z,47.77
2023-05-01T22:52:40.294Z,47.58
2023-05-01T22:55:42.432Z,48.03
2023-05-01T22:58:44.832Z,47.81
2023-05-01T23:01:47.049Z,47.94
2023-05-01T23:04:49.546Z,48.95
2023-05-01T23:07:51.780Z,49.88
2023-05-01T23:10:54.697Z,49.24
2023-05-01T23:13:57.058Z,49.77
2023-05-01T23:17:01.010Z,49.47
2023-05-01T23:20:07.246Z,50.01
2023-05-01T23:23:14.115Z,50.65
2023-05-01T23:26:27.021Z,50.60
2023-05-01T23:29:29.416Z,49.37
2023-05-01T23:32:32.299Z,51.87
2023-05-01T23:35:34.904Z,50.58
2023-05-01T23:38:37.007Z,48.43
2023-05-01T23:41:39.902Z,50.20
2023-05-01T23:44:42.406Z,49.67
2023-05-01T23:47:44.944Z,49.78
2023-05-01T23:50:47.149Z,50.57
2023-05-01T23:53:49.681Z,50.46
2023-05-01T23:56:52.095Z,46.88
2023-05-01T23:59:54.579Z,47.51
